Time;durP1;ratioP1;P1;durP2;ratioP2;P2;SDS_P1;SDS_P2;PMS_P1;PMS_P2;Temp;Humidity;BMP_temperature;BMP_pressure;BME280_temperature;BME280_humidity;BME280_pressure;Samples;Min_cycle;Max_cycle;Signal;HPM_P1;HPM_P2
2024/03/21 00:00:13;;;;;;;27.88;4.10;;;;;;;;;;5035185;28;20017;-68
2024/03/21 00:02:39;;;;;;;11.10;4.25;;;;;;;;;;5032055;28;20017;-68
2024/03/21 00:05:05;;;;;;;14.20;4.53;;;;;;;;;;5036197;28;20491;-68
2024/03/21 00:07:30;;;;;;;12.05;4.40;;;;;;;;;;5027456;28;20029;-68
2024/03/21 00:09:55;;;;;;;11.57;4.27;;;;;;;;;;5040320;28;20048;-68
2024/03/21 00:12:20;;;;;;;10.38;3.90;;;;;;;;;;5028753;28;20296;-68
2024/03/21 00:14:45;;;;;;;6.37;3.50;;;;;;;;;;5044346;28;20028;-68
2024/03/21 00:17:11;;;;;;;11.90;4.13;;;;;;;;;;5032417;28;20260;-68
2024/03/21 00:19:36;;;;;;;15.00;4.13;;;;;;;;;;5033268;28;20252;-68
2024/03/21 00:22:01;;;;;;;12.07;3.70;;;;;;;;;;5037918;28;20808;-68
2024/03/21 00:24:26;;;;;;;9.93;3.78;;;;;;;;;;5033128;28;20279;-68
2024/03/21 00:26:52;;;;;;;12.23;4.17;;;;;;;;;;5036836;28;20105;-68
2024/03/21 00:29:17;;;;;;;7.82;4.07;;;;;;;;;;5037476;28;20618;-68
2024/03/21 00:31:42;;;;;;;5.43;3.20;;;;;;;;;;5033089;28;20116;-68
2024/03/21 00:34:10;;;;;;;13.10;6.13;;;;;;;;;;5045225;28;20319;-68
2024/03/21 00:36:36;;;;;;;17.52;4.20;;;;;;;;;;5027577;28;20264;-68
2024/03/21 00:39:02;;;;;;;14.00;4.20;;;;;;;;;;5036809;28;20308;-68
2024/03/21 00:41:27;;;;;;;9.45;3.88;;;;;;;;;;5037569;28;20018;-68
2024/03/21 00:43:52;;;;;;;11.07;4.00;;;;;;;;;;5032898;28;20021;-68
2024/03/21 00:46:17;;;;;;;15.10;3.90;;;;;;;;;;5031484;28;20271;-68
2024/03/21 00:48:43;;;;;;;15.27;3.70;;;;;;;;;;5043583;28;20256;-68
2024/03/21 00:51:09;;;;;;;10.35;4.00;;;;;;;;;;5029481;28;20021;-68
2024/03/21 00:53:34;;;;;;;14.43;4.07;;;;;;;;;;5030932;28;20187;-68
2024/03/21 00:55:59;;;;;;;7.47;4.10;;;;;;;;;;5037015;28;20218;-68
2024/03/21 00:58:25;;;;;;;12.07;3.63;;;;;;;;;;5032449;28;20013;-68
2024/03/21 01:00:50;;;;;;;10.73;4.00;;;;;;;;;;5035711;28;20388;-68
2024/03/21 01:03:15;;;;;;;7.20;3.90;;;;;;;;;;5037994;28;20021;-68
2024/03/21 01:05:43;;;;;;;18.50;3.97;;;;;;;;;;5040962;28;20025;-68
2024/03/21 01:08:08;;;;;;;11.68;4.07;;;;;;;;;;5036164;28;20022;-68
2024/03/21 01:10:33;;;;;;;10.40;3.73;;;;;;;;;;5037461;28;20032;-68
2024/03/21 01:12:59;;;;;;;7.00;3.53;;;;;;;;;;5032122;28;20248;-68
2024/03/21 01:15:24;;;;;;;13.02;3.45;;;;;;;;;;5037924;28;20017;-68
2024/03/21 01:17:49;;;;;;;12.10;3.70;;;;;;;;;;5031687;28;20068;-68
2024/03/21 01:20:15;;;;;;;15.65;4.32;;;;;;;;;;5037869;28;20793;-68
2024/03/21 01:22:40;;;;;;;11.85;4.28;;;;;;;;;;5030224;28;20060;-68
2024/03/21 01:25:05;;;;;;;11.50;4.30;;;;;;;;;;5037082;28;20092;-68
2024/03/21 01:27:31;;;;;;;9.38;4.07;;;;;;;;;;5031956;28;20394;-68
2024/03/21 01:29:56;;;;;;;12.25;4.22;;;;;;;;;;5037137;28;20029;-68
2024/03/21 01:32:21;;;;;;;11.97;3.97;;;;;;;;;;5027401;28;20050;-68
2024/03/21 01:34:46;;;;;;;10.20;4.05;;;;;;;;;;5034010;28;20291;-68
2024/03/21 01:37:12;;;;;;;16.20;4.33;;;;;;;;;;5037563;28;20112;-68
2024/03/21 01:39:37;;;;;;;19.80;4.88;;;;;;;;;;5031586;28;20735;-68
2024/03/21 01:42:02;;;;;;;9.43;4.30;;;;;;;;;;5037474;28;20444;-68
2024/03/21 01:44:28;;;;;;;11.52;5.38;;;;;;;;;;5035659;28;20044;-67
2024/03/21 01:46:53;;;;;;;10.13;4.23;;;;;;;;;;5044631;28;20025;-68
2024/03/21 01:49:19;;;;;;;10.05;4.13;;;;;;;;;;5030910;28;20284;-68
2024/03/21 01:51:45;;;;;;;15.38;4.35;;;;;;;;;;5037013;28;20025;-68
2024/03/21 01:54:11;;;;;;;8.32;5.72;;;;;;;;;;5030976;28;20392;-68
2024/03/21 01:56:37;;;;;;;11.07;4.45;;;;;;;;;;5030769;28;20025;-68
2024/03/21 01:59:03;;;;;;;11.27;3.47;;;;;;;;;;5034263;28;20354;-68
2024/03/21 02:01:28;;;;;;;14.35;4.07;;;;;;;;;;5034877;28;20079;-68
2024/03/21 02:03:55;;;;;;;7.70;3.80;;;;;;;;;;5030991;28;20101;-68
2024/03/21 02:06:21;;;;;;;10.75;4.53;;;;;;;;;;5037965;28;20064;-68
2024/03/21 02:08:47;;;;;;;8.88;4.05;;;;;;;;;;5036330;28;20473;-68
2024/03/21 02:11:12;;;;;;;15.43;3.90;;;;;;;;;;5031040;28;20099;-68
2024/03/21 02:13:38;;;;;;;17.73;3.92;;;;;;;;;;5042353;28;20033;-68
2024/03/21 02:16:03;;;;;;;17.55;4.35;;;;;;;;;;5036609;28;20048;-68
2024/03/21 02:18:28;;;;;;;13.20;4.38;;;;;;;;;;5025488;28;20033;-68
2024/03/21 02:20:54;;;;;;;9.17;3.73;;;;;;;;;;5036669;28;20117;-68
2024/03/21 02:23:19;;;;;;;10.07;3.78;;;;;;;;;;5030283;28;20260;-68
2024/03/21 02:25:44;;;;;;;9.60;4.60;;;;;;;;;;5030875;28;20017;-68
2024/03/21 02:28:09;;;;;;;13.85;5.32;;;;;;;;;;5036422;28;20686;-68
2024/03/21 02:30:35;;;;;;;15.67;4.37;;;;;;;;;;5028714;28;20087;-68
2024/03/21 02:33:00;;;;;;;9.15;5.10;;;;;;;;;;5035571;28;20255;-68
2024/03/21 02:35:25;;;;;;;12.37;4.63;;;;;;;;;;5029774;28;20028;-68
2024/03/21 02:37:50;;;;;;;13.30;4.25;;;;;;;;;;5030406;28;20469;-68
2024/03/21 02:40:15;;;;;;;8.45;5.05;;;;;;;;;;5035592;28;20064;-68
2024/03/21 02:42:41;;;;;;;8.00;4.30;;;;;;;;;;5034921;28;20113;-68
2024/03/21 02:45:06;;;;;;;15.48;5.18;;;;;;;;;;5028155;28;20021;-68
2024/03/21 02:47:31;;;;;;;8.63;4.70;;;;;;;;;;5028813;28;20056;-68
2024/03/21 02:49:57;;;;;;;13.13;4.37;;;;;;;;;;5029326;28;20056;-68
2024/03/21 02:52:22;;;;;;;14.77;4.65;;;;;;;;;;5029576;28;20357;-68
2024/03/21 02:54:47;;;;;;;11.70;5.18;;;;;;;;;;5032947;28;20116;-68
2024/03/21 02:57:13;;;;;;;15.23;4.35;;;;;;;;;;5030667;28;20057;-68
2024/03/21 02:59:38;;;;;;;10.10;4.60;;;;;;;;;;5030997;28;20019;-68
2024/03/21 03:02:03;;;;;;;11.07;4.55;;;;;;;;;;5038656;28;20014;-68
2024/03/21 03:04:29;;;;;;;9.80;4.05;;;;;;;;;;5027923;28;20033;-68
2024/03/21 03:06:54;;;;;;;12.40;4.45;;;;;;;;;;5030099;28;20096;-68
2024/03/21 03:09:19;;;;;;;15.27;4.67;;;;;;;;;;5027934;28;20061;-68
2024/03/21 03:11:44;;;;;;;9.33;4.43;;;;;;;;;;5035814;28;20325;-68
2024/03/21 03:14:09;;;;;;;8.37;4.23;;;;;;;;;;5021704;28;20338;-68
2024/03/21 03:16:35;;;;;;;15.30;4.43;;;;;;;;;;5028979;28;20256;-68
2024/03/21 03:19:01;;;;;;;12.93;4.55;;;;;;;;;;5026526;28;20272;-68
2024/03/21 03:21:26;;;;;;;12.43;4.65;;;;;;;;;;5029179;28;20025;-68
2024/03/21 03:23:51;;;;;;;19.13;4.97;;;;;;;;;;5029381;28;20017;-68
2024/03/21 03:26:16;;;;;;;10.63;4.20;;;;;;;;;;5028925;28;20022;-68
2024/03/21 03:28:42;;;;;;;11.53;4.30;;;;;;;;;;5039864;28;20276;-68
2024/03/21 03:31:07;;;;;;;9.75;4.55;;;;;;;;;;5028120;28;20279;-68
2024/03/21 03:36:16;;;;;;;10.27;3.90;;;;;;;;;;5029055;28;20048;-68
2024/03/21 03:38:41;;;;;;;10.33;4.17;;;;;;;;;;5029148;28;20485;-68
2024/03/21 03:41:06;;;;;;;11.18;4.55;;;;;;;;;;5035237;28;20382;-68
2024/03/21 03:43:31;;;;;;;20.53;5.33;;;;;;;;;;5029269;28;20021;-68
2024/03/21 03:45:56;;;;;;;6.75;4.10;;;;;;;;;;5028708;28;20318;-68
2024/03/21 03:48:22;;;;;;;7.40;4.43;;;;;;;;;;5037237;28;20021;-68
2024/03/21 03:50:47;;;;;;;8.90;4.17;;;;;;;;;;5031897;28;20033;-68
2024/03/21 03:53:12;;;;;;;13.40;4.43;;;;;;;;;;5036909;28;20267;-68
2024/03/21 03:55:37;;;;;;;11.07;3.97;;;;;;;;;;5034735;28;20263;-68
2024/03/21 03:58:02;;;;;;;7.90;4.50;;;;;;;;;;5029486;28;20739;-68
2024/03/21 04:00:28;;;;;;;9.18;4.43;;;;;;;;;;5030162;28;20276;-68
2024/03/21 04:02:53;;;;;;;6.67;3.77;;;;;;;;;;5034789;28;20017;-68
2024/03/21 04:05:18;;;;;;;15.00;4.38;;;;;;;;;;5034453;28;20259;-68
2024/03/21 04:07:44;;;;;;;13.40;4.75;;;;;;;;;;5036386;28;20109;-68
2024/03/21 04:10:10;;;;;;;12.60;4.50;;;;;;;;;;5042207;28;20021;-68
2024/03/21 04:12:35;;;;;;;8.90;4.22;;;;;;;;;;5028847;28;20014;-68
2024/03/21 04:15:00;;;;;;;12.63;5.00;;;;;;;;;;5032521;28;20099;-68
2024/03/21 04:17:25;;;;;;;11.98;4.88;;;;;;;;;;5027379;28;20304;-68
2024/03/21 04:19:50;;;;;;;13.23;4.20;;;;;;;;;;5037240;28;20474;-69
2024/03/21 04:22:16;;;;;;;11.53;4.90;;;;;;;;;;5027927;28;20021;-68
2024/03/21 04:24:41;;;;;;;8.55;4.82;;;;;;;;;;5030629;28;20347;-68
2024/03/21 04:27:07;;;;;;;9.95;5.03;;;;;;;;;;5037473;28;20013;-68
2024/03/21 04:29:32;;;;;;;13.98;5.70;;;;;;;;;;5028940;28;20026;-68
2024/03/21 04:31:58;;;;;;;12.93;4.90;;;;;;;;;;5030128;28;20032;-68
2024/03/21 04:34:23;;;;;;;16.70;4.57;;;;;;;;;;5032175;28;20762;-68
2024/03/21 04:36:48;;;;;;;20.08;4.70;;;;;;;;;;5032635;28;20252;-68
2024/03/21 04:39:13;;;;;;;8.87;4.50;;;;;;;;;;5029543;28;20196;-68
2024/03/21 04:41:38;;;;;;;16.92;5.03;;;;;;;;;;5032634;28;20257;-68
2024/03/21 04:44:04;;;;;;;12.15;5.43;;;;;;;;;;5027200;28;20047;-68
2024/03/21 04:46:29;;;;;;;13.57;4.75;;;;;;;;;;5030449;28;20104;-68
2024/03/21 04:48:54;;;;;;;14.38;5.20;;;;;;;;;;5031761;28;20026;-68
2024/03/21 04:51:19;;;;;;;14.53;6.67;;;;;;;;;;5027414;28;20021;-68
2024/03/21 04:53:44;;;;;;;13.02;5.28;;;;;;;;;;5041084;28;20818;-68
2024/03/21 04:56:10;;;;;;;13.30;5.23;;;;;;;;;;5041912;28;20028;-68
2024/03/21 04:58:35;;;;;;;19.67;5.97;;;;;;;;;;5033359;28;20785;-68
2024/03/21 05:01:00;;;;;;;11.20;6.63;;;;;;;;;;5034157;28;20342;-68
2024/03/21 05:03:25;;;;;;;13.20;6.55;;;;;;;;;;5031950;28;20667;-68
2024/03/21 05:05:50;;;;;;;16.17;7.47;;;;;;;;;;5040157;28;20032;-68
2024/03/21 05:08:15;;;;;;;15.90;6.70;;;;;;;;;;5032043;28;20509;-68
2024/03/21 05:10:41;;;;;;;14.33;7.70;;;;;;;;;;5040816;28;20355;-68
2024/03/21 05:13:06;;;;;;;19.17;7.70;;;;;;;;;;5038522;28;20495;-68
2024/03/21 05:15:31;;;;;;;22.87;6.73;;;;;;;;;;5032237;28;20256;-68
2024/03/21 05:17:56;;;;;;;21.50;7.13;;;;;;;;;;5036604;28;20423;-68
2024/03/21 05:20:24;;;;;;;16.87;7.80;;;;;;;;;;5037198;28;20258;-68
2024/03/21 05:22:49;;;;;;;17.65;7.88;;;;;;;;;;5031451;28;20264;-68
2024/03/21 05:25:14;;;;;;;13.10;6.90;;;;;;;;;;5036922;28;20043;-68
2024/03/21 05:27:39;;;;;;;14.27;6.65;;;;;;;;;;5036624;28;20049;-68
2024/03/21 05:30:05;;;;;;;22.00;6.10;;;;;;;;;;5027441;28;20076;-68
2024/03/21 05:32:31;;;;;;;12.45;6.57;;;;;;;;;;5040363;28;20280;-68
2024/03/21 05:34:56;;;;;;;13.65;6.60;;;;;;;;;;5040320;28;20056;-68
2024/03/21 05:37:21;;;;;;;20.95;6.70;;;;;;;;;;5032334;28;20025;-68
2024/03/21 05:39:46;;;;;;;26.50;10.57;;;;;;;;;;5030836;28;20049;-68
2024/03/21 05:42:14;;;;;;;30.00;11.10;;;;;;;;;;5027227;28;20747;-68
2024/03/21 05:44:39;;;;;;;24.08;8.50;;;;;;;;;;5027006;28;20025;-68
2024/03/21 05:47:18;;;;;;;17.83;8.40;;;;;;;;;;5031258;28;20392;-68
2024/03/21 05:49:43;;;;;;;25.30;9.88;;;;;;;;;;5031252;28;20025;-68
2024/03/21 05:52:08;;;;;;;18.77;7.93;;;;;;;;;;5028049;28;20027;-68
2024/03/21 05:54:33;;;;;;;26.93;13.27;;;;;;;;;;5030961;28;20276;-68
2024/03/21 05:56:59;;;;;;;36.20;14.47;;;;;;;;;;5029944;28;20305;-68
2024/03/21 05:59:24;;;;;;;31.23;14.37;;;;;;;;;;5029606;28;20268;-68
2024/03/21 06:01:50;;;;;;;58.30;13.87;;;;;;;;;;5029754;28;21260;-68
2024/03/21 06:04:15;;;;;;;44.10;17.17;;;;;;;;;;5036102;28;20251;-68
2024/03/21 06:06:41;;;;;;;50.47;18.83;;;;;;;;;;5026959;28;20028;-68
2024/03/21 06:09:10;;;;;;;48.83;20.05;;;;;;;;;;5028861;28;20525;-68
2024/03/21 06:11:35;;;;;;;51.13;22.35;;;;;;;;;;5028353;28;20041;-68
2024/03/21 06:14:00;;;;;;;69.00;25.37;;;;;;;;;;5035798;28;20066;-68
2024/03/21 06:16:25;;;;;;;44.60;20.47;;;;;;;;;;5026892;28;20303;-68
2024/03/21 06:18:51;;;;;;;51.37;21.83;;;;;;;;;;5023029;28;20264;-68
2024/03/21 06:21:16;;;;;;;60.83;24.23;;;;;;;;;;5029213;28;20797;-68
2024/03/21 06:23:41;;;;;;;53.42;25.48;;;;;;;;;;5028981;28;20036;-68
2024/03/21 06:26:06;;;;;;;71.67;30.03;;;;;;;;;;5028706;28;20044;-68
2024/03/21 06:28:31;;;;;;;79.32;31.55;;;;;;;;;;5028469;28;20252;-68
2024/03/21 06:30:57;;;;;;;75.32;33.00;;;;;;;;;;5028795;28;20044;-68
2024/03/21 06:33:22;;;;;;;76.28;34.92;;;;;;;;;;5022700;28;20465;-68
2024/03/21 06:35:47;;;;;;;83.30;34.17;;;;;;;;;;5029088;28;20025;-68
2024/03/21 06:38:12;;;;;;;79.50;35.57;;;;;;;;;;5033248;28;20276;-68
2024/03/21 06:40:37;;;;;;;88.30;35.67;;;;;;;;;;5026296;28;20638;-68
2024/03/21 06:43:03;;;;;;;82.90;36.23;;;;;;;;;;5029885;28;20082;-68
2024/03/21 06:45:29;;;;;;;84.82;36.05;;;;;;;;;;5028235;28;20287;-68
2024/03/21 06:47:54;;;;;;;82.80;35.80;;;;;;;;;;5031741;28;20079;-68
2024/03/21 06:50:19;;;;;;;73.22;33.60;;;;;;;;;;5027024;28;20278;-69
2024/03/21 06:52:46;;;;;;;84.15;34.20;;;;;;;;;;5029837;28;20018;-69
2024/03/21 06:55:11;;;;;;;71.95;33.88;;;;;;;;;;5034897;28;20092;-69
2024/03/21 06:57:37;;;;;;;71.53;33.05;;;;;;;;;;5033719;28;20029;-69
2024/03/21 07:00:03;;;;;;;82.63;35.27;;;;;;;;;;5032074;28;20436;-69
2024/03/21 07:02:28;;;;;;;82.18;35.35;;;;;;;;;;5034592;28;20679;-69
2024/03/21 07:04:54;;;;;;;72.50;30.23;;;;;;;;;;5033641;28;20056;-69
2024/03/21 07:07:19;;;;;;;68.57;32.77;;;;;;;;;;5024782;28;20279;-69
2024/03/21 07:09:44;;;;;;;76.30;33.87;;;;;;;;;;5027604;28;20271;-69
2024/03/21 07:12:09;;;;;;;68.90;33.73;;;;;;;;;;5028343;28;20793;-69
2024/03/21 07:14:34;;;;;;;73.50;33.13;;;;;;;;;;5029971;28;20319;-69
2024/03/21 07:17:00;;;;;;;69.05;32.47;;;;;;;;;;5034922;28;20248;-69
2024/03/21 07:19:32;;;;;;;72.65;34.25;;;;;;;;;;5029295;28;20381;-69
2024/03/21 07:21:57;;;;;;;70.82;31.27;;;;;;;;;;5029900;28;20052;-67
2024/03/21 07:24:22;;;;;;;75.70;33.80;;;;;;;;;;5033574;28;20021;-67
2024/03/21 07:26:47;;;;;;;65.28;32.75;;;;;;;;;;5032397;28;20021;-68
2024/03/21 07:29:13;;;;;;;65.30;30.87;;;;;;;;;;5024888;28;20025;-68
2024/03/21 07:31:38;;;;;;;77.93;31.53;;;;;;;;;;5025022;28;20256;-68
2024/03/21 07:34:03;;;;;;;64.60;30.67;;;;;;;;;;5027591;28;20639;-68
2024/03/21 07:36:28;;;;;;;66.17;32.83;;;;;;;;;;5029928;28;20279;-68
2024/03/21 07:38:53;;;;;;;68.80;32.45;;;;;;;;;;5033479;28;20349;-68
2024/03/21 07:41:21;;;;;;;75.33;30.73;;;;;;;;;;5029620;28;20112;-68
2024/03/21 07:43:46;;;;;;;66.22;31.05;;;;;;;;;;5024860;28;20765;-68
2024/03/21 07:46:12;;;;;;;67.30;30.27;;;;;;;;;;5030175;28;20033;-68
2024/03/21 07:48:37;;;;;;;72.68;32.50;;;;;;;;;;5024496;28;20263;-67
2024/03/21 07:51:02;;;;;;;87.90;36.23;;;;;;;;;;5029935;28;20029;-67
2024/03/21 07:53:28;;;;;;;80.35;34.42;;;;;;;;;;5028374;28;20259;-68
2024/03/21 07:55:55;;;;;;;82.65;39.45;;;;;;;;;;5028587;28;20024;-68
2024/03/21 07:58:20;;;;;;;77.82;35.67;;;;;;;;;;5026104;28;20032;-68
2024/03/21 08:00:45;;;;;;;77.30;34.57;;;;;;;;;;5028157;28;20051;-68
2024/03/21 08:03:10;;;;;;;77.30;33.27;;;;;;;;;;5027602;28;20275;-68
2024/03/21 08:05:36;;;;;;;71.27;34.87;;;;;;;;;;5028185;28;20339;-67
2024/03/21 08:08:01;;;;;;;63.70;31.70;;;;;;;;;;5029626;28;20276;-68
2024/03/21 08:10:26;;;;;;;73.77;32.67;;;;;;;;;;5030748;28;20033;-68
2024/03/21 08:12:51;;;;;;;74.15;34.60;;;;;;;;;;5028798;28;20804;-68
2024/03/21 08:15:16;;;;;;;73.40;31.83;;;;;;;;;;5030341;28;20098;-67
2024/03/21 08:17:42;;;;;;;78.30;33.22;;;;;;;;;;5029997;28;20264;-68
2024/03/21 08:20:07;;;;;;;78.30;35.17;;;;;;;;;;5027679;28;20310;-68
2024/03/21 08:22:32;;;;;;;61.13;30.67;;;;;;;;;;5027458;28;20292;-68
2024/03/21 08:24:58;;;;;;;82.20;34.35;;;;;;;;;;5033503;28;20096;-68
2024/03/21 08:27:23;;;;;;;77.70;34.10;;;;;;;;;;5028562;28;20021;-68
2024/03/21 08:29:51;;;;;;;69.80;33.93;;;;;;;;;;5033283;28;20018;-68
2024/03/21 08:32:21;;;;;;;74.60;32.58;;;;;;;;;;5028866;28;20299;-68
2024/03/21 08:34:46;;;;;;;74.45;33.40;;;;;;;;;;5031497;28;20025;-68
2024/03/21 08:37:11;;;;;;;67.57;32.27;;;;;;;;;;5033471;28;20403;-68
2024/03/21 08:39:36;;;;;;;77.90;35.63;;;;;;;;;;5034164;28;20299;-67
2024/03/21 08:42:02;;;;;;;63.00;30.27;;;;;;;;;;5036574;28;20767;-67
2024/03/21 08:44:27;;;;;;;63.97;33.50;;;;;;;;;;5036428;28;20271;-68
2024/03/21 08:46:52;;;;;;;62.50;30.90;;;;;;;;;;5034339;28;20036;-68
2024/03/21 08:49:18;;;;;;;79.70;29.85;;;;;;;;;;5032668;28;20363;-67
2024/03/21 08:51:44;;;;;;;57.90;28.70;;;;;;;;;;5032315;28;20140;-68
2024/03/21 08:54:09;;;;;;;58.17;28.67;;;;;;;;;;5031754;28;20109;-67
2024/03/21 08:56:34;;;;;;;55.22;28.40;;;;;;;;;;5034538;28;20727;-68
2024/03/21 08:59:00;;;;;;;58.05;29.00;;;;;;;;;;5031023;28;20500;-67
2024/03/21 09:01:25;;;;;;;48.97;25.65;;;;;;;;;;5031167;28;20039;-68
2024/03/21 09:03:50;;;;;;;48.20;23.77;;;;;;;;;;5031089;28;20116;-68
2024/03/21 09:06:16;;;;;;;61.53;25.92;;;;;;;;;;5029822;28;20022;-68
2024/03/21 09:08:41;;;;;;;61.17;30.52;;;;;;;;;;5031356;28;20033;-68
2024/03/21 09:11:06;;;;;;;57.78;29.85;;;;;;;;;;5034404;28;20032;-67
2024/03/21 09:13:32;;;;;;;65.40;32.92;;;;;;;;;;5031200;28;20102;-68
2024/03/21 09:15:57;;;;;;;58.35;31.58;;;;;;;;;;5031926;28;20048;-68
2024/03/21 09:18:22;;;;;;;53.63;27.10;;;;;;;;;;5031788;28;20021;-68
2024/03/21 09:20:48;;;;;;;44.40;22.27;;;;;;;;;;5032975;28;20017;-68
2024/03/21 09:23:13;;;;;;;42.47;18.85;;;;;;;;;;5029856;28;20032;-68
2024/03/21 09:25:38;;;;;;;32.78;15.73;;;;;;;;;;5030462;28;20025;-68
2024/03/21 09:28:04;;;;;;;33.38;17.02;;;;;;;;;;5031274;28;20025;-67
2024/03/21 09:30:29;;;;;;;30.07;13.73;;;;;;;;;;5031826;28;20093;-68
2024/03/21 09:32:54;;;;;;;29.47;15.17;;;;;;;;;;5031020;28;20267;-68
2024/03/21 09:35:19;;;;;;;25.70;12.43;;;;;;;;;;5030236;28;20330;-68
2024/03/21 09:37:44;;;;;;;26.33;11.70;;;;;;;;;;5035432;28;20264;-68
2024/03/21 09:40:10;;;;;;;23.40;10.47;;;;;;;;;;5032814;28;20268;-68
2024/03/21 09:42:36;;;;;;;20.27;10.65;;;;;;;;;;5031463;28;20256;-68
2024/03/21 09:45:01;;;;;;;21.92;10.75;;;;;;;;;;5035056;28;20039;-68
2024/03/21 09:47:27;;;;;;;20.40;9.37;;;;;;;;;;5031417;28;20392;-68
2024/03/21 09:49:52;;;;;;;16.98;9.23;;;;;;;;;;5031791;28;20275;-68
2024/03/21 09:52:18;;;;;;;22.90;10.85;;;;;;;;;;5031215;28;20025;-68
2024/03/21 09:54:43;;;;;;;20.20;10.65;;;;;;;;;;5030505;28;20055;-68
2024/03/21 09:57:11;;;;;;;19.80;10.05;;;;;;;;;;5031032;28;20130;-68
2024/03/21 09:59:36;;;;;;;17.45;9.20;;;;;;;;;;5031698;28;20494;-68
2024/03/21 10:02:01;;;;;;;17.90;9.87;;;;;;;;;;5030591;28;20029;-68
2024/03/21 10:04:26;;;;;;;18.57;8.87;;;;;;;;;;5039977;28;20271;-68
2024/03/21 10:06:51;;;;;;;16.80;9.70;;;;;;;;;;5034724;28;20616;-68
2024/03/21 10:09:17;;;;;;;14.33;8.63;;;;;;;;;;5029216;28;20362;-68
2024/03/21 10:11:42;;;;;;;18.02;9.75;;;;;;;;;;5028924;28;20280;-68
2024/03/21 10:14:12;;;;;;;15.32;8.00;;;;;;;;;;5032834;28;20025;-68
2024/03/21 10:16:37;;;;;;;12.35;7.40;;;;;;;;;;5030594;28;20349;-68
2024/03/21 10:19:02;;;;;;;15.75;8.27;;;;;;;;;;5039147;28;20025;-69
2024/03/21 10:21:28;;;;;;;13.02;8.27;;;;;;;;;;5034151;28;20451;-69
2024/03/21 10:24:03;;;;;;;14.98;7.38;;;;;;;;;;5032511;28;20029;-69
2024/03/21 10:26:28;;;;;;;16.02;7.78;;;;;;;;;;5029478;28;20029;-69
2024/03/21 10:28:54;;;;;;;20.23;8.23;;;;;;;;;;5032347;28;20028;-69
2024/03/21 10:31:21;;;;;;;11.85;7.75;;;;;;;;;;5030612;28;20102;-69
2024/03/21 10:33:47;;;;;;;14.32;8.48;;;;;;;;;;5030584;28;20025;-69
2024/03/21 10:36:13;;;;;;;14.15;8.27;;;;;;;;;;5030641;28;20045;-69
2024/03/21 10:38:38;;;;;;;16.52;8.23;;;;;;;;;;5030602;28;20492;-69
2024/03/21 10:41:07;;;;;;;11.07;6.20;;;;;;;;;;5027957;28;20518;-69
2024/03/21 10:43:34;;;;;;;9.93;5.63;;;;;;;;;;5027719;28;20018;-69
2024/03/21 10:45:59;;;;;;;9.75;5.53;;;;;;;;;;5030052;28;20033;-69
2024/03/21 10:48:27;;;;;;;22.92;7.13;;;;;;;;;;5029705;28;20017;-69
2024/03/21 10:50:52;;;;;;;10.35;5.68;;;;;;;;;;5029908;28;20062;-69
2024/03/21 10:53:19;;;;;;;12.07;6.10;;;;;;;;;;5033956;28;20013;-69
2024/03/21 10:55:44;;;;;;;12.85;6.35;;;;;;;;;;5032730;28;20025;-68
2024/03/21 10:58:14;;;;;;;17.35;5.80;;;;;;;;;;5028159;28;20439;-69
2024/03/21 11:00:39;;;;;;;16.00;5.45;;;;;;;;;;5033920;28;20033;-69
2024/03/21 11:03:05;;;;;;;9.18;4.55;;;;;;;;;;5029547;28;20021;-69
2024/03/21 11:05:30;;;;;;;9.23;4.70;;;;;;;;;;5029946;28;20029;-69
2024/03/21 11:07:55;;;;;;;6.97;5.30;;;;;;;;;;5032965;28;20265;-69
2024/03/21 11:10:21;;;;;;;12.20;4.10;;;;;;;;;;5029137;28;20940;-69
2024/03/21 11:12:47;;;;;;;5.97;3.88;;;;;;;;;;5029054;28;20273;-69
2024/03/21 11:15:12;;;;;;;5.88;4.53;;;;;;;;;;5032638;28;20108;-69
2024/03/21 11:17:38;;;;;;;7.95;3.85;;;;;;;;;;5028254;28;20101;-69
2024/03/21 11:20:05;;;;;;;6.88;3.63;;;;;;;;;;5033709;28;20100;-67
2024/03/21 11:22:31;;;;;;;6.53;3.88;;;;;;;;;;5032026;28;20022;-67
2024/03/21 11:24:56;;;;;;;11.43;3.75;;;;;;;;;;5032943;28;20392;-67
2024/03/21 11:27:21;;;;;;;6.18;3.83;;;;;;;;;;5027689;28;20120;-67
2024/03/21 11:29:47;;;;;;;10.20;4.78;;;;;;;;;;5033161;28;20017;-67
2024/03/21 11:32:19;;;;;;;5.80;4.10;;;;;;;;;;5031463;28;20036;-69
2024/03/21 11:34:45;;;;;;;6.38;3.80;;;;;;;;;;5029470;28;20307;-70
2024/03/21 11:37:13;;;;;;;9.10;3.92;;;;;;;;;;5032149;28;20543;-67
2024/03/21 11:39:39;;;;;;;7.28;3.90;;;;;;;;;;5028270;28;20018;-68
2024/03/21 11:42:08;;;;;;;7.78;3.63;;;;;;;;;;5028087;28;20021;-68
2024/03/21 11:44:36;;;;;;;6.05;3.42;;;;;;;;;;5027118;28;20107;-68
2024/03/21 11:47:02;;;;;;;6.93;3.28;;;;;;;;;;5027895;28;20298;-68
2024/03/21 11:49:27;;;;;;;4.60;3.40;;;;;;;;;;5036350;28;20025;-68
2024/03/21 11:51:53;;;;;;;7.13;3.67;;;;;;;;;;5032372;28;20072;-68
2024/03/21 11:54:18;;;;;;;6.63;3.33;;;;;;;;;;5032599;28;20353;-67
2024/03/21 11:56:43;;;;;;;5.23;3.20;;;;;;;;;;5028224;28;20502;-68
2024/03/21 11:59:09;;;;;;;4.57;3.50;;;;;;;;;;5033450;28;20294;-68
2024/03/21 12:01:34;;;;;;;7.15;3.38;;;;;;;;;;5026072;28;20342;-67
2024/03/21 12:04:00;;;;;;;5.93;4.05;;;;;;;;;;5031567;28;20064;-67
2024/03/21 12:06:25;;;;;;;6.45;3.78;;;;;;;;;;5031723;28;20017;-68
2024/03/21 12:08:51;;;;;;;7.10;4.03;;;;;;;;;;5031886;28;20033;-68
2024/03/21 12:11:17;;;;;;;4.55;3.78;;;;;;;;;;5032138;28;20045;-67
2024/03/21 12:13:43;;;;;;;5.10;3.72;;;;;;;;;;5028467;28;20506;-67
2024/03/21 12:16:14;;;;;;;5.40;4.70;;;;;;;;;;5034434;28;20021;-67
2024/03/21 12:18:39;;;;;;;6.68;4.80;;;;;;;;;;5027935;28;20026;-67
2024/03/21 12:21:05;;;;;;;10.27;4.50;;;;;;;;;;5026597;28;20441;-68
2024/03/21 12:23:30;;;;;;;7.55;4.68;;;;;;;;;;5026594;28;20256;-67
2024/03/21 12:25:55;;;;;;;10.48;4.82;;;;;;;;;;5026719;28;20093;-68
2024/03/21 12:28:25;;;;;;;9.27;5.22;;;;;;;;;;5027475;28;20017;-67
2024/03/21 12:30:50;;;;;;;9.27;4.80;;;;;;;;;;5024556;28;20385;-68
2024/03/21 12:33:16;;;;;;;12.83;6.60;;;;;;;;;;5028686;28;20018;-67
2024/03/21 12:35:41;;;;;;;12.30;5.93;;;;;;;;;;5029003;28;20349;-67
2024/03/21 12:38:06;;;;;;;9.10;5.40;;;;;;;;;;5028342;28;20049;-67
2024/03/21 12:40:31;;;;;;;11.50;6.33;;;;;;;;;;5027651;28;20770;-68
2024/03/21 12:42:57;;;;;;;11.35;6.07;;;;;;;;;;5027756;28;20314;-68
2024/03/21 12:45:22;;;;;;;14.82;5.88;;;;;;;;;;5026709;28;20018;-67
2024/03/21 12:47:47;;;;;;;10.83;6.43;;;;;;;;;;5027609;28;20473;-67
2024/03/21 12:50:12;;;;;;;11.33;6.30;;;;;;;;;;5029647;28;20021;-68
2024/03/21 12:52:37;;;;;;;8.97;5.57;;;;;;;;;;5032025;28;20252;-68
2024/03/21 12:55:04;;;;;;;16.38;8.90;;;;;;;;;;5029403;28;20361;-68
2024/03/21 12:57:29;;;;;;;15.90;7.45;;;;;;;;;;5027144;28;20022;-67
2024/03/21 12:59:54;;;;;;;10.75;6.85;;;;;;;;;;5029777;28;20027;-67
2024/03/21 13:02:20;;;;;;;12.45;6.75;;;;;;;;;;5026374;28;20033;-67
2024/03/21 13:04:48;;;;;;;10.70;6.25;;;;;;;;;;5031864;28;20025;-67
2024/03/21 13:07:13;;;;;;;9.32;5.95;;;;;;;;;;5030545;28;20100;-68
2024/03/21 13:09:38;;;;;;;22.27;7.25;;;;;;;;;;5032043;28;20104;-68
2024/03/21 13:12:04;;;;;;;12.07;6.37;;;;;;;;;;5026588;28;20036;-68
2024/03/21 13:14:29;;;;;;;10.95;6.70;;;;;;;;;;5027823;28;20431;-67
2024/03/21 13:16:54;;;;;;;12.07;6.50;;;;;;;;;;5028140;28;20472;-68
2024/03/21 13:19:20;;;;;;;12.05;7.50;;;;;;;;;;5027155;28;20022;-68
2024/03/21 13:21:45;;;;;;;11.07;7.88;;;;;;;;;;5027899;28;20017;-67
2024/03/21 13:24:10;;;;;;;13.17;8.00;;;;;;;;;;5034794;28;20434;-67
2024/03/21 13:26:35;;;;;;;12.13;8.30;;;;;;;;;;5031177;28;20295;-68
2024/03/21 13:29:00;;;;;;;11.27;7.67;;;;;;;;;;5030310;28;20350;-68
2024/03/21 13:31:26;;;;;;;13.23;7.07;;;;;;;;;;5030404;28;20260;-68
2024/03/21 13:33:51;;;;;;;10.63;6.53;;;;;;;;;;5031588;28;20288;-68
2024/03/21 13:36:16;;;;;;;11.93;7.20;;;;;;;;;;5029201;28;20017;-68
2024/03/21 13:38:41;;;;;;;13.77;7.13;;;;;;;;;;5033461;28;20359;-68
2024/03/21 13:41:06;;;;;;;9.63;6.00;;;;;;;;;;5031529;28;20284;-68
2024/03/21 13:43:32;;;;;;;11.60;6.93;;;;;;;;;;5029209;28;20608;-68
2024/03/21 13:45:58;;;;;;;12.55;6.75;;;;;;;;;;5030444;28;20064;-68
2024/03/21 13:48:23;;;;;;;13.07;7.15;;;;;;;;;;5029839;28;20017;-68
2024/03/21 13:50:49;;;;;;;11.98;6.90;;;;;;;;;;5027767;28;20025;-68
2024/03/21 13:53:14;;;;;;;15.60;8.73;;;;;;;;;;5031501;28;20268;-68
2024/03/21 13:55:40;;;;;;;13.32;7.50;;;;;;;;;;5025898;28;20686;-68
2024/03/21 13:58:05;;;;;;;12.25;7.13;;;;;;;;;;5030371;28;20025;-68
2024/03/21 14:00:30;;;;;;;13.35;6.78;;;;;;;;;;5030464;28;20022;-68
2024/03/21 14:02:56;;;;;;;9.23;6.53;;;;;;;;;;5029591;28;20017;-68
2024/03/21 14:05:25;;;;;;;10.63;5.80;;;;;;;;;;5026790;28;20021;-68
2024/03/21 14:07:50;;;;;;;8.57;6.10;;;;;;;;;;5030660;28;20044;-68
2024/03/21 14:10:15;;;;;;;11.55;6.40;;;;;;;;;;5029022;28;20037;-68
2024/03/21 14:12:41;;;;;;;12.87;5.83;;;;;;;;;;5027407;28;20559;-68
2024/03/21 14:15:06;;;;;;;15.77;6.53;;;;;;;;;;5030284;28;20279;-68
2024/03/21 14:17:35;;;;;;;10.63;7.00;;;;;;;;;;5029940;28;20048;-68
2024/03/21 14:20:07;;;;;;;10.27;6.20;;;;;;;;;;5030426;28;20064;-68